sensor_id;sensor_type;location;lat;lon;timestamp;pressure;altitude;pressure_sealevel;temperature;humidity
4617;BME280;2321;42.704;23.384;2023-04-07T00:00:49;95181.50;;;2.48;nan
4617;BME280;2321;42.704;23.384;2023-04-07T00:03:15;95194.72;;;2.56;nan
4617;BME280;2321;42.704;23.384;2023-04-07T00:05:42;95183.53;;;2.54;nan
4617;BME280;2321;42.704;23.384;2023-04-07T00:08:09;95155.69;;;2.33;nan
4617;BME280;2321;42.704;23.384;2023-04-07T00:10:36;95190.13;;;2.58;nan
4617;BME280;2321;42.704;23.384;2023-04-07T00:13:03;95190.13;;;2.58;nan
4617;BME280;2321;42.704;23.384;2023-04-07T00:15:31;95186.56;;;2.59;nan
4617;BME280;2321;42.704;23.384;2023-04-07T00:17:58;95191.94;;;2.58;nan
4617;BME280;2321;42.704;23.384;2023-04-07T00:20:25;95187.50;;;2.58;nan
4617;BME280;2321;42.704;23.384;2023-04-07T00:22:52;95182.72;;;2.54;nan
4617;BME280;2321;42.704;23.384;2023-04-07T00:25:18;95180.91;;;2.54;nan
4617;BME280;2321;42.704;23.384;2023-04-07T00:27:45;95185.19;;;2.55;nan
4617;BME280;2321;42.704;23.384;2023-04-07T00:30:12;95182.25;;;2.58;nan
4617;BME280;2321;42.704;23.384;2023-04-07T00:32:41;95183.91;;;2.59;nan
4617;BME280;2321;42.704;23.384;2023-04-07T00:35:08;95176.25;;;2.48;nan
4617;BME280;2321;42.704;23.384;2023-04-07T00:37:35;95177.28;;;2.55;nan
4617;BME280;2321;42.704;23.384;2023-04-07T00:40:03;95178.88;;;2.48;nan
4617;BME280;2321;42.704;23.384;2023-04-07T00:42:30;95172.50;;;2.50;nan
4617;BME280;2321;42.704;23.384;2023-04-07T00:44:56;95180.38;;;2.50;nan
4617;BME280;2321;42.704;23.384;2023-04-07T00:47:23;95181.22;;;2.51;nan
4617;BME280;2321;42.704;23.384;2023-04-07T00:49:52;95180.09;;;2.54;nan
4617;BME280;2321;42.704;23.384;2023-04-07T00:52:19;95181.63;;;2.46;nan
4617;BME280;2321;42.704;23.384;2023-04-07T00:54:52;95175.16;;;2.41;nan
4617;BME280;2321;42.704;23.384;2023-04-07T00:57:19;95178.88;;;2.48;nan
4617;BME280;2321;42.704;23.384;2023-04-07T00:59:47;95143.56;;;2.32;nan
4617;BME280;2321;42.704;23.384;2023-04-07T01:02:16;95180.22;;;2.52;nan
4617;BME280;2321;42.704;23.384;2023-04-07T01:04:48;95177.03;;;2.48;nan
4617;BME280;2321;42.704;23.384;2023-04-07T01:07:22;95181.50;;;2.48;nan
4617;BME280;2321;42.704;23.384;2023-04-07T01:09:54;95172.91;;;2.46;nan
4617;BME280;2321;42.704;23.384;2023-04-07T01:12:29;95172.84;;;2.37;nan
4617;BME280;2321;42.704;23.384;2023-04-07T01:15:08;95159.72;;;2.27;nan
4617;BME280;2321;42.704;23.384;2023-04-07T01:17:36;95179.88;;;2.37;nan
4617;BME280;2321;42.704;23.384;2023-04-07T01:20:06;95176.19;;;2.30;nan
4617;BME280;2321;42.704;23.384;2023-04-07T01:22:42;95177.34;;;2.17;nan
4617;BME280;2321;42.704;23.384;2023-04-07T01:25:22;95176.53;;;2.16;nan
4617;BME280;2321;42.704;23.384;2023-04-07T01:27:59;95170.44;;;2.16;nan
4617;BME280;2321;42.704;23.384;2023-04-07T01:30:37;95169.81;;;2.04;nan
4617;BME280;2321;42.704;23.384;2023-04-07T01:33:06;95177.00;;;2.02;nan
4617;BME280;2321;42.704;23.384;2023-04-07T01:35:34;95168.72;;;1.96;nan
4617;BME280;2321;42.704;23.384;2023-04-07T01:38:02;95166.09;;;1.96;nan
4617;BME280;2321;42.704;23.384;2023-04-07T01:40:32;95168.03;;;1.94;nan
4617;BME280;2321;42.704;23.384;2023-04-07T01:43:00;95166.28;;;1.75;nan
4617;BME280;2321;42.704;23.384;2023-04-07T01:45:27;95166.28;;;1.75;nan
4617;BME280;2321;42.704;23.384;2023-04-07T01:47:56;95160.38;;;1.73;nan
4617;BME280;2321;42.704;23.384;2023-04-07T01:50:24;95165.63;;;1.73;nan
4617;BME280;2321;42.704;23.384;2023-04-07T01:52:52;95164.91;;;1.81;nan
4617;BME280;2321;42.704;23.384;2023-04-07T01:55:19;95160.47;;;1.81;nan
4617;BME280;2321;42.704;23.384;2023-04-07T01:57:46;95150.25;;;1.78;nan
4617;BME280;2321;42.704;23.384;2023-04-07T02:00:13;95157.16;;;1.79;nan
4617;BME280;2321;42.704;23.384;2023-04-07T02:02:43;95156.59;;;1.85;nan
4617;BME280;2321;42.704;23.384;2023-04-07T02:05:14;95151.19;;;1.87;nan
4617;BME280;2321;42.704;23.384;2023-04-07T02:07:48;95152.19;;;1.86;nan
4617;BME280;2321;42.704;23.384;2023-04-07T02:10:21;95148.88;;;1.84;nan
4617;BME280;2321;42.704;23.384;2023-04-07T02:12:50;95150.81;;;1.82;nan
4617;BME280;2321;42.704;23.384;2023-04-07T02:15:18;95146.38;;;1.82;nan
4617;BME280;2321;42.704;23.384;2023-04-07T02:17:48;95148.28;;;1.90;nan
4617;BME280;2321;42.704;23.384;2023-04-07T02:20:19;95151.50;;;1.84;nan
4617;BME280;2321;42.704;23.384;2023-04-07T02:22:47;95150.91;;;1.90;nan
4617;BME280;2321;42.704;23.384;2023-04-07T02:25:21;95157.53;;;1.94;nan
4617;BME280;2321;42.704;23.384;2023-04-07T02:27:49;95150.63;;;1.93;nan
4617;BME280;2321;42.704;23.384;2023-04-07T02:30:16;95151.03;;;1.99;nan
4617;BME280;2321;42.704;23.384;2023-04-07T02:32:43;95153.22;;;2.03;nan
4617;BME280;2321;42.704;23.384;2023-04-07T02:35:10;95154.44;;;2.09;nan
4617;BME280;2321;42.704;23.384;2023-04-07T02:37:38;95162.03;;;2.12;nan
4617;BME280;2321;42.704;23.384;2023-04-07T02:40:06;95154.97;;;2.13;nan
4617;BME280;2321;42.704;23.384;2023-04-07T02:42:33;95153.72;;;2.17;nan
4617;BME280;2321;42.704;23.384;2023-04-07T02:45:00;95157.19;;;2.17;nan
4617;BME280;2321;42.704;23.384;2023-04-07T02:47:27;95150.50;;;2.23;nan
4617;BME280;2321;42.704;23.384;2023-04-07T02:49:54;95158.94;;;2.27;nan
4617;BME280;2321;42.704;23.384;2023-04-07T02:52:21;95165.44;;;2.23;nan
4617;BME280;2321;42.704;23.384;2023-04-07T02:54:49;95167.81;;;2.16;nan
4617;BME280;2321;42.704;23.384;2023-04-07T02:57:16;95164.47;;;2.24;nan
4617;BME280;2321;42.704;23.384;2023-04-07T02:59:43;95154.63;;;2.26;nan
4617;BME280;2321;42.704;23.384;2023-04-07T03:02:10;95157.34;;;2.34;nan
4617;BME280;2321;42.704;23.384;2023-04-07T03:04:37;95158.56;;;2.40;nan
4617;BME280;2321;42.704;23.384;2023-04-07T03:07:04;95163.16;;;2.38;nan
4617;BME280;2321;42.704;23.384;2023-04-07T03:09:31;95151.22;;;2.44;nan
4617;BME280;2321;42.704;23.384;2023-04-07T03:11:59;95157.16;;;2.46;nan
4617;BME280;2321;42.704;23.384;2023-04-07T03:14:26;95160.97;;;2.52;nan
4617;BME280;2321;42.704;23.384;2023-04-07T03:16:53;95161.38;;;2.57;nan
4617;BME280;2321;42.704;23.384;2023-04-07T03:19:20;95160.94;;;2.61;nan
4617;BME280;2321;42.704;23.384;2023-04-07T03:21:47;95159.28;;;2.60;nan
4617;BME280;2321;42.704;23.384;2023-04-07T03:24:14;95161.75;;;2.62;nan
4617;BME280;2321;42.704;23.384;2023-04-07T03:26:41;95161.22;;;2.58;nan
4617;BME280;2321;42.704;23.384;2023-04-07T03:29:09;95153.50;;;2.57;nan
4617;BME280;2321;42.704;23.384;2023-04-07T03:31:36;95159.06;;;2.54;nan
4617;BME280;2321;42.704;23.384;2023-04-07T03:34:03;95153.78;;;2.54;nan
4617;BME280;2321;42.704;23.384;2023-04-07T03:36:30;95155.59;;;2.53;nan
4617;BME280;2321;42.704;23.384;2023-04-07T03:38:57;95162.13;;;2.49;nan
4617;BME280;2321;42.704;23.384;2023-04-07T03:41:24;95156.63;;;2.42;nan
4617;BME280;2321;42.704;23.384;2023-04-07T03:43:51;95153.75;;;2.35;nan
4617;BME280;2321;42.704;23.384;2023-04-07T03:46:19;95156.69;;;2.32;nan
4617;BME280;2321;42.704;23.384;2023-04-07T03:48:46;95159.16;;;2.34;nan
4617;BME280;2321;42.704;23.384;2023-04-07T03:51:13;95159.16;;;2.34;nan
4617;BME280;2321;42.704;23.384;2023-04-07T03:53:41;95165.25;;;2.34;nan
4617;BME280;2321;42.704;23.384;2023-04-07T03:56:08;95173.88;;;2.26;nan
4617;BME280;2321;42.704;23.384;2023-04-07T03:58:35;95170.41;;;2.26;nan
4617;BME280;2321;42.704;23.384;2023-04-07T04:01:03;95175.41;;;2.19;nan
4617;BME280;2321;42.704;23.384;2023-04-07T04:03:31;95177.09;;;2.10;nan
4617;BME280;2321;42.704;23.384;2023-04-07T04:05:58;95171.19;;;2.08;nan
4617;BME280;2321;42.704;23.384;2023-04-07T04:08:26;95173.69;;;2.00;nan
4617;BME280;2321;42.704;23.384;2023-04-07T04:10:53;95186.53;;;2.03;nan
4617;BME280;2321;42.704;23.384;2023-04-07T04:13:19;95173.69;;;2.00;nan
4617;BME280;2321;42.704;23.384;2023-04-07T04:15:46;95186.56;;;1.93;nan
4617;BME280;2321;42.704;23.384;2023-04-07T04:18:13;95187.00;;;1.88;nan
4617;BME280;2321;42.704;23.384;2023-04-07T04:20:42;95191.00;;;1.92;nan
4617;BME280;2321;42.704;23.384;2023-04-07T04:23:09;95195.44;;;1.82;nan
4617;BME280;2321;42.704;23.384;2023-04-07T04:25:36;95190.19;;;1.82;nan
4617;BME280;2321;42.704;23.384;2023-04-07T04:28:04;95187.16;;;1.87;nan
4617;BME280;2321;42.704;23.384;2023-04-07T04:30:31;95195.81;;;1.87;nan
4617;BME280;2321;42.704;23.384;2023-04-07T04:32:57;95200.41;;;1.85;nan
4617;BME280;2321;42.704;23.384;2023-04-07T04:35:24;95203.13;;;1.93;nan
4617;BME280;2321;42.704;23.384;2023-04-07T04:37:53;95199.81;;;2.01;nan
4617;BME280;2321;42.704;23.384;2023-04-07T04:40:19;95202.97;;;2.05;nan
4617;BME280;2321;42.704;23.384;2023-04-07T04:42:46;95203.09;;;2.13;nan
4617;BME280;2321;42.704;23.384;2023-04-07T04:45:13;95202.34;;;2.21;nan
4617;BME280;2321;42.704;23.384;2023-04-07T04:47:40;95210.34;;;2.30;nan
4617;BME280;2321;42.704;23.384;2023-04-07T04:50:08;95207.28;;;2.34;nan
4617;BME280;2321;42.704;23.384;2023-04-07T04:52:35;95209.22;;;2.32;nan
4617;BME280;2321;42.704;23.384;2023-04-07T04:55:06;95211.56;;;2.35;nan
4617;BME280;2321;42.704;23.384;2023-04-07T04:57:33;95206.56;;;2.42;nan
4617;BME280;2321;42.704;23.384;2023-04-07T05:00:01;95211.38;;;2.47;nan
4617;BME280;2321;42.704;23.384;2023-04-07T05:02:28;95220.47;;;2.53;nan
4617;BME280;2321;42.704;23.384;2023-04-07T05:04:55;95218.59;;;2.45;nan
4617;BME280;2321;42.704;23.384;2023-04-07T05:07:22;95212.78;;;2.41;nan
4617;BME280;2321;42.704;23.384;2023-04-07T05:09:49;95225.94;;;2.41;nan
4617;BME280;2321;42.704;23.384;2023-04-07T05:12:17;95231.56;;;2.46;nan
4617;BME280;2321;42.704;23.384;2023-04-07T05:14:44;95239.53;;;2.55;nan
4617;BME280;2321;42.704;23.384;2023-04-07T05:17:11;95228.59;;;2.59;nan
4617;BME280;2321;42.704;23.384;2023-04-07T05:19:38;95221.69;;;2.58;nan
4617;BME280;2321;42.704;23.384;2023-04-07T05:22:04;95233.91;;;2.78;nan
4617;BME280;2321;42.704;23.384;2023-04-07T05:24:31;95232.66;;;2.82;nan
4617;BME280;2321;42.704;23.384;2023-04-07T05:26:58;95235.19;;;2.92;nan
4617;BME280;2321;42.704;23.384;2023-04-07T05:29:27;95239.31;;;2.94;nan
4617;BME280;2321;42.704;23.384;2023-04-07T05:31:54;95235.81;;;3.04;nan
4617;BME280;2321;42.704;23.384;2023-04-07T05:34:21;95234.72;;;3.07;nan
4617;BME280;2321;42.704;23.384;2023-04-07T05:36:48;95238.38;;;3.14;nan
4617;BME280;2321;42.704;23.384;2023-04-07T05:39:15;95242.22;;;3.20;nan
4617;BME280;2321;42.704;23.384;2023-04-07T05:41:42;95243.88;;;3.21;nan
4617;BME280;2321;42.704;23.384;2023-04-07T05:44:09;95242.44;;;3.26;nan
4617;BME280;2321;42.704;23.384;2023-04-07T05:46:37;95238.91;;;3.36;nan
4617;BME280;2321;42.704;23.384;2023-04-07T05:49:04;95237.78;;;3.38;nan
4617;BME280;2321;42.704;23.384;2023-04-07T05:51:31;95240.66;;;3.45;nan
4617;BME280;2321;42.704;23.384;2023-04-07T05:54:00;95238.69;;;3.47;nan
4617;BME280;2321;42.704;23.384;2023-04-07T05:56:27;95238.25;;;3.52;nan
4617;BME280;2321;42.704;23.384;2023-04-07T05:58:54;95243.34;;;3.54;nan
4617;BME280;2321;42.704;23.384;2023-04-07T06:01:21;95239.44;;;3.58;nan
4617;BME280;2321;42.704;23.384;2023-04-07T06:03:49;95239.13;;;3.61;nan
4617;BME280;2321;42.704;23.384;2023-04-07T06:06:16;95241.16;;;3.67;nan
4617;BME280;2321;42.704;23.384;2023-04-07T06:08:43;95244.38;;;3.79;nan
4617;BME280;2321;42.704;23.384;2023-04-07T06:11:10;95246.91;;;3.89;nan
4617;BME280;2321;42.704;23.384;2023-04-07T06:13:37;95242.31;;;3.91;nan
4617;BME280;2321;42.704;23.384;2023-04-07T06:16:04;95243.19;;;4.00;nan
4617;BME280;2321;42.704;23.384;2023-04-07T06:18:31;95233.47;;;4.01;nan
4617;BME280;2321;42.704;23.384;2023-04-07T06:20:59;95237.00;;;4.10;nan
4617;BME280;2321;42.704;23.384;2023-04-07T06:23:26;95236.88;;;4.20;nan
4617;BME280;2321;42.704;23.384;2023-04-07T06:25:53;95245.50;;;4.30;nan
4617;BME280;2321;42.704;23.384;2023-04-07T06:28:20;95246.38;;;4.39;nan
4617;BME280;2321;42.704;23.384;2023-04-07T06:30:47;95235.88;;;4.47;nan
4617;BME280;2321;42.704;23.384;2023-04-07T06:33:14;95234.44;;;4.62;nan
4617;BME280;2321;42.704;23.384;2023-04-07T06:35:40;95238.78;;;4.79;nan
4617;BME280;2321;42.704;23.384;2023-04-07T06:38:09;95231.59;;;4.98;nan
4617;BME280;2321;42.704;23.384;2023-04-07T06:40:36;95242.03;;;5.17;nan
4617;BME280;2321;42.704;23.384;2023-04-07T06:43:03;95242.41;;;5.39;nan
4617;BME280;2321;42.704;23.384;2023-04-07T06:45:30;95247.53;;;5.57;nan
4617;BME280;2321;42.704;23.384;2023-04-07T06:47:57;95245.38;;;5.69;nan
4617;BME280;2321;42.704;23.384;2023-04-07T06:50:24;95247.19;;;5.85;nan
4617;BME280;2321;42.704;23.384;2023-04-07T06:52:51;95253.13;;;5.87;nan
4617;BME280;2321;42.704;23.384;2023-04-07T06:55:19;95248.00;;;5.86;nan
4617;BME280;2321;42.704;23.384;2023-04-07T06:57:46;95245.19;;;5.96;nan
4617;BME280;2321;42.704;23.384;2023-04-07T07:00:14;95240.25;;;6.09;nan
4617;BME280;2321;42.704;23.384;2023-04-07T07:02:40;95244.22;;;6.22;nan
4617;BME280;2321;42.704;23.384;2023-04-07T07:05:07;95254.09;;;6.20;nan
4617;BME280;2321;42.704;23.384;2023-04-07T07:07:35;95250.00;;;6.17;nan
4617;BME280;2321;42.704;23.384;2023-04-07T07:10:09;95241.91;;;6.10;nan
4617;BME280;2321;42.704;23.384;2023-04-07T07:12:37;95246.69;;;6.15;nan
4617;BME280;2321;42.704;23.384;2023-04-07T07:15:06;95250.78;;;6.26;nan
4617;BME280;2321;42.704;23.384;2023-04-07T07:17:33;95242.34;;;6.39;nan
4617;BME280;2321;42.704;23.384;2023-04-07T07:20:00;95249.91;;;6.59;nan
4617;BME280;2321;42.704;23.384;2023-04-07T07:22:27;95246.53;;;6.74;nan
4617;BME280;2321;42.704;23.384;2023-04-07T07:24:54;95258.59;;;6.77;nan
4617;BME280;2321;42.704;23.384;2023-04-07T07:27:20;95256.44;;;6.72;nan
4617;BME280;2321;42.704;23.384;2023-04-07T07:29:49;95254.81;;;6.62;nan
4617;BME280;2321;42.704;23.384;2023-04-07T07:32:15;95261.97;;;6.53;nan
4617;BME280;2321;42.704;23.384;2023-04-07T07:34:42;95251.75;;;6.42;nan
4617;BME280;2321;42.704;23.384;2023-04-07T07:37:09;95266.97;;;6.40;nan
4617;BME280;2321;42.704;23.384;2023-04-07T07:39:36;95258.84;;;6.41;nan
4617;BME280;2321;42.704;23.384;2023-04-07T07:42:03;95259.03;;;6.40;nan
4617;BME280;2321;42.704;23.384;2023-04-07T07:44:30;95265.69;;;6.27;nan
4617;BME280;2321;42.704;23.384;2023-04-07T07:46:58;95267.97;;;6.30;nan
4617;BME280;2321;42.704;23.384;2023-04-07T07:49:25;95262.84;;;6.29;nan
4617;BME280;2321;42.704;23.384;2023-04-07T07:51:52;95263.84;;;6.28;nan
4617;BME280;2321;42.704;23.384;2023-04-07T07:54:19;95260.38;;;6.27;nan
4617;BME280;2321;42.704;23.384;2023-04-07T07:56:48;95266.47;;;6.36;nan
4617;BME280;2321;42.704;23.384;2023-04-07T07:59:16;95256.69;;;6.45;nan
4617;BME280;2321;42.704;23.384;2023-04-07T08:01:43;95269.56;;;6.65;nan
4617;BME280;2321;42.704;23.384;2023-04-07T08:04:13;95259.06;;;6.80;nan
4617;BME280;2321;42.704;23.384;2023-04-07T08:06:41;95263.50;;;6.88;nan
4617;BME280;2321;42.704;23.384;2023-04-07T08:09:08;95263.09;;;7.00;nan
4617;BME280;2321;42.704;23.384;2023-04-07T08:11:35;95258.78;;;7.07;nan
4617;BME280;2321;42.704;23.384;2023-04-07T08:14:02;95260.56;;;7.15;nan
4617;BME280;2321;42.704;23.384;2023-04-07T08:16:28;95263.97;;;7.24;nan
4617;BME280;2321;42.704;23.384;2023-04-07T08:18:55;95265.28;;;7.28;nan
4617;BME280;2321;42.704;23.384;2023-04-07T08:21:24;95265.91;;;7.38;nan
4617;BME280;2321;42.704;23.384;2023-04-07T08:23:52;95272.19;;;7.37;nan
4617;BME280;2321;42.704;23.384;2023-04-07T08:26:19;95276.97;;;7.42;nan
4617;BME280;2321;42.704;23.384;2023-04-07T08:28:46;95270.22;;;7.31;nan
4617;BME280;2321;42.704;23.384;2023-04-07T08:31:13;95262.56;;;7.36;nan
4617;BME280;2321;42.704;23.384;2023-04-07T08:33:40;95262.91;;;7.41;nan
4617;BME280;2321;42.704;23.384;2023-04-07T08:36:07;95262.78;;;7.58;nan
4617;BME280;2321;42.704;23.384;2023-04-07T08:38:35;95258.22;;;7.67;nan
4617;BME280;2321;42.704;23.384;2023-04-07T08:41:05;95253.41;;;7.71;nan
4617;BME280;2321;42.704;23.384;2023-04-07T08:43:34;95249.16;;;7.61;nan
4617;BME280;2321;42.704;23.384;2023-04-07T08:46:02;95255.50;;;7.60;nan
4617;BME280;2321;42.704;23.384;2023-04-07T08:48:30;95261.78;;;7.59;nan
4617;BME280;2321;42.704;23.384;2023-04-07T08:50:59;95260.72;;;7.69;nan
4617;BME280;2321;42.704;23.384;2023-04-07T08:53:37;95262.47;;;7.77;nan
4617;BME280;2321;42.704;23.384;2023-04-07T08:56:07;95267.34;;;7.88;nan
4617;BME280;2321;42.704;23.384;2023-04-07T08:58:34;95265.75;;;8.02;nan
4617;BME280;2321;42.704;23.384;2023-04-07T09:01:04;95264.75;;;8.03;nan
4617;BME280;2321;42.704;23.384;2023-04-07T09:03:32;95262.91;;;8.04;nan
4617;BME280;2321;42.704;23.384;2023-04-07T09:06:00;95271.34;;;8.07;nan
4617;BME280;2321;42.704;23.384;2023-04-07T09:08:29;95264.56;;;8.05;nan
4617;BME280;2321;42.704;23.384;2023-04-07T09:10:57;95270.91;;;8.19;nan
4617;BME280;2321;42.704;23.384;2023-04-07T09:13:24;95267.25;;;8.20;nan
4617;BME280;2321;42.704;23.384;2023-04-07T09:15:51;95267.13;;;8.13;nan
4617;BME280;2321;42.704;23.384;2023-04-07T09:18:18;95260.84;;;8.14;nan
4617;BME280;2321;42.704;23.384;2023-04-07T09:20:58;95269.72;;;8.22;nan
4617;BME280;2321;42.704;23.384;2023-04-07T09:23:29;95275.78;;;8.31;nan
4617;BME280;2321;42.704;23.384;2023-04-07T09:25:59;95276.69;;;8.38;nan
4617;BME280;2321;42.704;23.384;2023-04-07T09:28:39;95265.34;;;8.44;nan
4617;BME280;2321;42.704;23.384;2023-04-07T09:31:06;95262.91;;;8.58;nan
4617;BME280;2321;42.704;23.384;2023-04-07T09:33:33;95257.16;;;8.69;nan
4617;BME280;2321;42.704;23.384;2023-04-07T09:36:01;95269.31;;;8.94;nan
4617;BME280;2321;42.704;23.384;2023-04-07T09:38:36;95276.09;;;8.97;nan
4617;BME280;2321;42.704;23.384;2023-04-07T09:41:09;95263.44;;;8.83;nan
4617;BME280;2321;42.704;23.384;2023-04-07T09:43:40;95256.31;;;8.84;nan
4617;BME280;2321;42.704;23.384;2023-04-07T09:46:12;95274.28;;;8.82;nan
4617;BME280;2321;42.704;23.384;2023-04-07T09:48:39;95268.69;;;8.77;nan
4617;BME280;2321;42.704;23.384;2023-04-07T09:51:08;95269.59;;;8.69;nan
4617;BME280;2321;42.704;23.384;2023-04-07T09:53:44;95273.88;;;8.55;nan
4617;BME280;2321;42.704;23.384;2023-04-07T09:56:13;95274.22;;;8.36;nan
4617;BME280;2321;42.704;23.384;2023-04-07T09:58:43;95279.59;;;8.28;nan
4617;BME280;2321;42.704;23.384;2023-04-07T10:01:11;95283.34;;;8.19;nan
4617;BME280;2321;42.704;23.384;2023-04-07T10:03:39;95275.09;;;8.13;nan
4617;BME280;2321;42.704;23.384;2023-04-07T10:06:06;95249.28;;;8.07;nan
4617;BME280;2321;42.704;23.384;2023-04-07T10:08:36;95272.78;;;8.49;nan
4617;BME280;2321;42.704;23.384;2023-04-07T10:11:04;95270.69;;;8.75;nan
4617;BME280;2321;42.704;23.384;2023-04-07T10:13:35;95285.78;;;8.74;nan
4617;BME280;2321;42.704;23.384;2023-04-07T10:16:06;95280.19;;;8.54;nan
4617;BME280;2321;42.704;23.384;2023-04-07T10:18:35;95261.03;;;8.28;nan
4617;BME280;2321;42.704;23.384;2023-04-07T10:21:03;95282.19;;;8.36;nan
4617;BME280;2321;42.704;23.384;2023-04-07T10:23:42;95275.94;;;8.29;nan
4617;BME280;2321;42.704;23.384;2023-04-07T10:26:14;95277.13;;;8.26;nan
4617;BME280;2321;42.704;23.384;2023-04-07T10:28:45;95269.50;;;8.08;nan
4617;BME280;2321;42.704;23.384;2023-04-07T10:31:15;95271.34;;;8.07;nan
4617;BME280;2321;42.704;23.384;2023-04-07T10:33:46;95274.25;;;8.13;nan
4617;BME280;2321;42.704;23.384;2023-04-07T10:36:14;95281.50;;;8.19;nan
4617;BME280;2321;42.704;23.384;2023-04-07T10:38:41;95273.13;;;8.31;nan
4617;BME280;2321;42.704;23.384;2023-04-07T10:41:33;95286.03;;;8.34;nan
4617;BME280;2321;42.704;23.384;2023-04-07T10:44:02;95290.97;;;8.37;nan
4617;BME280;2321;42.704;23.384;2023-04-07T10:47:02;95285.13;;;8.42;nan
4617;BME280;2321;42.704;23.384;2023-04-07T10:49:29;95287.16;;;8.55;nan
4617;BME280;2321;42.704;23.384;2023-04-07T10:52:21;95291.25;;;8.57;nan
4617;BME280;2321;42.704;23.384;2023-04-07T10:55:27;95286.47;;;8.53;nan
4617;BME280;2321;42.704;23.384;2023-04-07T10:58:13;95285.50;;;8.54;nan
4617;BME280;2321;42.704;23.384;2023-04-07T11:00:42;95281.53;;;8.49;nan
4617;BME280;2321;42.704;23.384;2023-04-07T11:03:30;95298.91;;;8.60;nan
4617;BME280;2321;42.704;23.384;2023-04-07T11:06:02;95295.31;;;8.68;nan
4617;BME280;2321;42.704;23.384;2023-04-07T11:08:32;95300.00;;;8.66;nan
4617;BME280;2321;42.704;23.384;2023-04-07T11:10:59;95287.03;;;8.48;nan
4617;BME280;2321;42.704;23.384;2023-04-07T11:13:26;95299.03;;;8.59;nan
4617;BME280;2321;42.704;23.384;2023-04-07T11:15:56;95294.47;;;8.68;nan
4617;BME280;2321;42.704;23.384;2023-04-07T11:18:32;95291.66;;;8.69;nan
4617;BME280;2321;42.704;23.384;2023-04-07T11:21:06;95303.75;;;8.72;nan
4617;BME280;2321;42.704;23.384;2023-04-07T11:23:38;95305.28;;;8.66;nan
4617;BME280;2321;42.704;23.384;2023-04-07T11:26:14;95304.47;;;8.66;nan
4617;BME280;2321;42.704;23.384;2023-04-07T11:28:44;95308.38;;;8.55;nan
4617;BME280;2321;42.704;23.384;2023-04-07T11:31:20;95301.69;;;8.59;nan
4617;BME280;2321;42.704;23.384;2023-04-07T11:33:51;95304.84;;;8.63;nan
4617;BME280;2321;42.704;23.384;2023-04-07T11:36:25;95301.66;;;8.67;nan
4617;BME280;2321;42.704;23.384;2023-04-07T11:38:53;95305.94;;;8.68;nan
4617;BME280;2321;42.704;23.384;2023-04-07T11:41:20;95304.94;;;8.69;nan
4617;BME280;2321;42.704;23.384;2023-04-07T11:43:47;95304.22;;;8.76;nan
4617;BME280;2321;42.704;23.384;2023-04-07T11:46:17;95306.59;;;8.86;nan
4617;BME280;2321;42.704;23.384;2023-04-07T11:48:44;95288.84;;;8.86;nan
4617;BME280;2321;42.704;23.384;2023-04-07T11:51:16;95305.28;;;8.97;nan
4617;BME280;2321;42.704;23.384;2023-04-07T11:53:43;95303.38;;;8.90;nan
4617;BME280;2321;42.704;23.384;2023-04-07T11:56:13;95300.09;;;8.88;nan
4617;BME280;2321;42.704;23.384;2023-04-07T11:58:46;95298.78;;;8.84;nan
4617;BME280;2321;42.704;23.384;2023-04-07T12:01:15;95298.44;;;8.87;nan
4617;BME280;2321;42.704;23.384;2023-04-07T12:03:54;95303.00;;;8.93;nan
4617;BME280;2321;42.704;23.384;2023-04-07T12:06:26;95297.22;;;9.05;nan
4617;BME280;2321;42.704;23.384;2023-04-07T12:08:55;95296.09;;;9.30;nan
4617;BME280;2321;42.704;23.384;2023-04-07T12:11:22;95287.91;;;9.46;nan
4617;BME280;2321;42.704;23.384;2023-04-07T12:13:49;95299.78;;;9.51;nan
4617;BME280;2321;42.704;23.384;2023-04-07T12:16:19;95279.22;;;9.37;nan
4617;BME280;2321;42.704;23.384;2023-04-07T12:18:46;95307.41;;;9.39;nan
4617;BME280;2321;42.704;23.384;2023-04-07T12:21:13;95303.75;;;9.40;nan
4617;BME280;2321;42.704;23.384;2023-04-07T12:23:40;95297.06;;;9.44;nan
4617;BME280;2321;42.704;23.384;2023-04-07T12:26:07;95303.28;;;9.51;nan
4617;BME280;2321;42.704;23.384;2023-04-07T12:28:36;95304.72;;;9.54;nan
4617;BME280;2321;42.704;23.384;2023-04-07T12:31:03;95292.75;;;9.43;nan
4617;BME280;2321;42.704;23.384;2023-04-07T12:33:31;95298.78;;;9.52;nan
4617;BME280;2321;42.704;23.384;2023-04-07T12:35:58;95293.72;;;9.57;nan
4617;BME280;2321;42.704;23.384;2023-04-07T12:38:25;95295.44;;;9.65;nan
4617;BME280;2321;42.704;23.384;2023-04-07T12:40:53;95297.16;;;9.73;nan
4617;BME280;2321;42.704;23.384;2023-04-07T12:43:20;95286.47;;;9.66;nan
4617;BME280;2321;42.704;23.384;2023-04-07T12:45:46;95294.44;;;9.66;nan
4617;BME280;2321;42.704;23.384;2023-04-07T12:48:13;95296.31;;;9.50;nan
4617;BME280;2321;42.704;23.384;2023-04-07T12:50:42;95296.41;;;9.42;nan
4617;BME280;2321;42.704;23.384;2023-04-07T12:53:09;95295.25;;;9.29;nan
4617;BME280;2321;42.704;23.384;2023-04-07T12:55:36;95294.38;;;9.22;nan
4617;BME280;2321;42.704;23.384;2023-04-07T12:58:03;95292.34;;;9.24;nan
4617;BME280;2321;42.704;23.384;2023-04-07T13:00:30;95306.66;;;9.23;nan
4617;BME280;2321;42.704;23.384;2023-04-07T13:02:57;95298.50;;;9.09;nan
4617;BME280;2321;42.704;23.384;2023-04-07T13:05:24;95309.13;;;9.09;nan
4617;BME280;2321;42.704;23.384;2023-04-07T13:07:53;95299.72;;;9.07;nan
4617;BME280;2321;42.704;23.384;2023-04-07T13:10:20;95312.25;;;9.13;nan
4617;BME280;2321;42.704;23.384;2023-04-07T13:12:47;95303.44;;;9.12;nan
4617;BME280;2321;42.704;23.384;2023-04-07T13:15:15;95314.06;;;9.12;nan
4617;BME280;2321;42.704;23.384;2023-04-07T13:17:42;95312.41;;;9.11;nan
4617;BME280;2321;42.704;23.384;2023-04-07T13:20:12;95305.66;;;9.09;nan
4617;BME280;2321;42.704;23.384;2023-04-07T13:22:39;95307.03;;;9.04;nan
4617;BME280;2321;42.704;23.384;2023-04-07T13:25:08;95304.44;;;9.11;nan
4617;BME280;2321;42.704;23.384;2023-04-07T13:27:34;95304.19;;;9.06;nan
4617;BME280;2321;42.704;23.384;2023-04-07T13:30:01;95306.28;;;8.96;nan
4617;BME280;2321;42.704;23.384;2023-04-07T13:32:28;95305.66;;;8.93;nan
4617;BME280;2321;42.704;23.384;2023-04-07T13:34:55;95316.56;;;8.83;nan
4617;BME280;2321;42.704;23.384;2023-04-07T13:37:22;95322.53;;;8.70;nan
4617;BME280;2321;42.704;23.384;2023-04-07T13:39:49;95317.22;;;8.70;nan
4617;BME280;2321;42.704;23.384;2023-04-07T13:42:17;95319.56;;;8.65;nan
4617;BME280;2321;42.704;23.384;2023-04-07T13:44:45;95329.81;;;8.68;nan
4617;BME280;2321;42.704;23.384;2023-04-07T13:47:13;95327.28;;;8.75;nan
4617;BME280;2321;42.704;23.384;2023-04-07T13:49:44;95325.97;;;8.71;nan
4617;BME280;2321;42.704;23.384;2023-04-07T13:52:11;95332.56;;;8.60;nan